Eagles Nest, North Dakota
Current Conditions -  °F | °C
As of 3:35 AM on Saturday 29 Nov 2014 (Local Time) from KD57 Reporting Station
Overcast Overcast  
Wind Chill: 13°   Ceiling: 10000
Heat Index: 25°   Visibility: 10mi
Dew Point: 21°   Wind: 13mph
Humidity: 86%   Direction: 310°NW
Pressure: 29.41"   Gusts: NA
Location:  46.8449°N, 101.803°W
Report Text: KD57 290935Z AUTO 31011KT 10SM FEW075 OVC100 M04/M06 A2941 RMK AO2 TSNO
Loading
Personal Weather Stations






























Interactive Weather Map New forecast layout! Learn more

10-Day Weather Forecast

Advertisements
Track Severe Weather on mobile